Time;durP1;ratioP1;P1;durP2;ratioP2;P2;SDS_P1;SDS_P2;PMS_P1;PMS_P2;Temp;Humidity;BMP_temperature;BMP_pressure;BME280_temperature;BME280_humidity;BME280_pressure;Samples;Min_cycle;Max_cycle;Signal;HPM_P1;HPM_P2
2024/04/09 00:01:20;;;;;;;16.95;2.45;;;10.90;99.90;;;;;;5438904;26;20030;-66
2024/04/09 00:03:47;;;;;;;8.73;1.85;;;10.90;99.90;;;;;;5415471;26;20008;-66
2024/04/09 00:06:15;;;;;;;12.68;2.05;;;10.90;99.90;;;;;;5425292;26;20021;-66
2024/04/09 00:08:45;;;;;;;13.60;2.50;;;10.80;99.90;;;;;;5472938;26;20014;-67
2024/04/09 00:11:21;;;;;;;16.63;2.38;;;10.80;99.90;;;;;;5425039;26;20007;-66
2024/04/09 00:13:51;;;;;;;17.92;3.97;;;10.70;99.90;;;;;;5445394;26;20338;-66
2024/04/09 00:16:25;;;;;;;15.93;3.10;;;10.70;99.90;;;;;;5443344;26;20006;-66
2024/04/09 00:18:56;;;;;;;19.67;2.53;;;10.70;99.90;;;;;;5445232;26;20004;-66
2024/04/09 00:21:24;;;;;;;14.18;2.75;;;10.60;99.90;;;;;;5426471;26;20010;-67
2024/04/09 00:23:51;;;;;;;18.00;2.30;;;10.60;99.90;;;;;;5447611;26;20011;-65
2024/04/09 00:26:18;;;;;;;8.90;2.67;;;10.50;99.90;;;;;;5474751;26;20006;-66
2024/04/09 00:28:46;;;;;;;13.98;1.90;;;10.50;99.90;;;;;;5442420;26;20330;-67
2024/04/09 00:31:13;;;;;;;11.98;2.65;;;10.50;99.90;;;;;;5450761;26;20716;-66
2024/04/09 00:33:40;;;;;;;20.92;2.60;;;10.40;99.90;;;;;;5463840;26;19994;-66
2024/04/09 00:36:12;;;;;;;14.25;2.35;;;10.40;99.90;;;;;;5466711;26;20018;-66
2024/04/09 00:38:44;;;;;;;14.55;2.30;;;10.40;99.90;;;;;;5412979;26;20038;-67
2024/04/09 00:41:11;;;;;;;14.55;1.95;;;10.40;99.90;;;;;;5436373;26;19994;-67
2024/04/09 00:43:38;;;;;;;10.88;1.70;;;10.40;99.90;;;;;;5450700;26;20003;-67
2024/04/09 00:46:05;;;;;;;9.45;1.80;;;10.40;99.90;;;;;;5460737;26;19998;-67
2024/04/09 00:48:33;;;;;;;10.68;1.77;;;10.40;99.90;;;;;;5421410;26;20075;-67
2024/04/09 00:51:00;;;;;;;9.60;1.80;;;10.40;99.90;;;;;;5434052;26;19998;-68
2024/04/09 00:53:27;;;;;;;10.35;1.88;;;10.40;99.90;;;;;;5451114;26;20018;-67
2024/04/09 00:55:55;;;;;;;13.63;2.58;;;10.20;99.90;;;;;;5451313;26;20000;-67
2024/04/09 00:58:23;;;;;;;11.90;1.73;;;10.20;99.90;;;;;;5435496;26;19999;-66
2024/04/09 01:00:49;;;;;;;11.07;2.00;;;10.20;99.90;;;;;;5405039;26;20074;-67
2024/04/09 01:03:17;;;;;;;9.18;2.15;;;10.20;99.90;;;;;;5454657;26;20013;-67
2024/04/09 01:05:44;;;;;;;11.38;2.25;;;10.20;99.90;;;;;;5442363;26;20014;-66
2024/04/09 01:08:11;;;;;;;11.60;2.08;;;10.20;99.90;;;;;;5408809;26;20060;-67
2024/04/09 01:10:38;;;;;;;15.52;3.17;;;10.20;99.90;;;;;;5448811;26;20011;-67
2024/04/09 01:13:05;;;;;;;9.77;2.00;;;10.30;99.90;;;;;;5441228;26;20018;-67
2024/04/09 01:15:32;;;;;;;14.73;2.53;;;10.30;99.90;;;;;;5456748;26;19994;-68
2024/04/09 01:17:59;;;;;;;10.65;2.28;;;10.20;99.90;;;;;;5453842;26;20025;-68
2024/04/09 01:20:26;;;;;;;8.07;1.80;;;10.30;99.90;;;;;;5460846;26;19995;-67
2024/04/09 01:22:54;;;;;;;8.55;2.08;;;10.20;99.90;;;;;;5457682;26;20051;-67
2024/04/09 01:25:21;;;;;;;11.15;1.92;;;10.20;99.90;;;;;;5466107;26;20063;-67
2024/04/09 01:27:48;;;;;;;11.32;1.40;;;10.20;99.90;;;;;;5477506;26;20472;-67
2024/04/09 01:30:15;;;;;;;9.48;1.77;;;10.10;99.90;;;;;;5449163;26;19995;-67
2024/04/09 01:32:44;;;;;;;8.45;2.03;;;10.10;99.90;;;;;;5450987;26;20016;-67
2024/04/09 01:35:14;;;;;;;11.20;1.60;;;10.10;99.90;;;;;;5457991;26;20013;-68
2024/04/09 01:37:41;;;;;;;11.27;1.65;;;10.00;99.90;;;;;;5452290;26;20014;-68
2024/04/09 01:40:09;;;;;;;6.30;1.23;;;10.00;99.90;;;;;;5455403;26;20010;-68
2024/04/09 01:42:36;;;;;;;12.02;2.05;;;9.80;99.90;;;;;;5444669;26;20015;-68
2024/04/09 01:45:04;;;;;;;11.90;2.17;;;9.80;99.90;;;;;;5440732;26;19995;-68
2024/04/09 01:47:31;;;;;;;9.40;1.85;;;9.80;99.90;;;;;;5466453;26;20006;-68
2024/04/09 01:49:58;;;;;;;6.80;1.42;;;9.80;99.90;;;;;;5458590;26;20326;-68
2024/04/09 01:52:25;;;;;;;13.15;1.80;;;9.80;99.90;;;;;;5455705;26;20018;-68
2024/04/09 01:54:53;;;;;;;13.13;1.98;;;9.80;99.90;;;;;;5440426;26;20072;-68
2024/04/09 01:57:20;;;;;;;10.73;2.33;;;9.70;99.90;;;;;;5426053;26;20019;-68
2024/04/09 01:59:47;;;;;;;7.65;1.67;;;9.70;99.90;;;;;;5439107;26;20011;-68
2024/04/09 02:02:16;;;;;;;8.73;1.50;;;9.60;99.90;;;;;;5443639;26;20083;-69
2024/04/09 02:04:44;;;;;;;10.88;1.80;;;9.60;99.90;;;;;;5469534;26;20525;-67
2024/04/09 02:07:11;;;;;;;16.58;2.72;;;9.60;99.90;;;;;;5441473;26;20003;-68
2024/04/09 02:09:38;;;;;;;9.20;2.35;;;9.50;99.90;;;;;;5447795;26;20007;-68
2024/04/09 02:12:07;;;;;;;19.15;2.85;;;9.60;99.90;;;;;;5443653;26;20594;-68
2024/04/09 02:14:35;;;;;;;16.10;2.05;;;9.60;99.90;;;;;;5436186;26;20018;-68
2024/04/09 02:17:02;;;;;;;18.80;2.85;;;9.60;99.90;;;;;;5441867;26;20052;-68
2024/04/09 02:19:29;;;;;;;12.00;2.05;;;9.60;99.90;;;;;;5423040;26;20002;-69
2024/04/09 02:21:56;;;;;;;8.55;1.50;;;9.60;99.90;;;;;;5443348;26;20067;-68
2024/04/09 02:24:24;;;;;;;13.70;2.38;;;9.50;99.90;;;;;;5450416;26;20528;-67
2024/04/09 02:26:52;;;;;;;7.35;1.60;;;9.40;99.90;;;;;;5436219;26;20038;-68
2024/04/09 02:29:19;;;;;;;13.63;1.95;;;9.40;99.90;;;;;;5443486;26;20010;-68
2024/04/09 02:31:46;;;;;;;10.90;1.40;;;9.30;99.90;;;;;;5435935;26;20047;-68
2024/04/09 02:34:13;;;;;;;10.25;1.63;;;9.30;99.90;;;;;;5450377;26;20154;-68
2024/04/09 02:36:40;;;;;;;7.82;1.48;;;9.30;99.90;;;;;;5455929;26;20096;-66
2024/04/09 02:39:08;;;;;;;9.93;1.60;;;9.40;99.90;;;;;;5444898;26;20010;-67
2024/04/09 02:41:39;;;;;;;8.45;1.48;;;9.40;99.90;;;;;;5445246;26;20043;-67
2024/04/09 02:44:07;;;;;;;7.82;1.58;;;9.40;99.90;;;;;;5452118;26;19995;-67
2024/04/09 02:46:35;;;;;;;4.28;1.35;;;9.40;99.90;;;;;;5427530;26;20003;-67
2024/04/09 02:49:03;;;;;;;14.15;1.67;;;9.40;99.90;;;;;;5467360;26;20009;-67
2024/04/09 02:51:30;;;;;;;11.73;1.65;;;9.40;99.90;;;;;;5458381;26;20053;-67
2024/04/09 02:53:57;;;;;;;8.18;1.10;;;9.40;99.90;;;;;;5457961;26;20017;-67
2024/04/09 02:56:24;;;;;;;11.05;1.30;;;9.40;99.90;;;;;;5470415;26;20021;-68
2024/04/09 02:58:51;;;;;;;14.05;2.65;;;9.40;99.90;;;;;;5450859;26;20006;-68
2024/04/09 03:01:18;;;;;;;8.15;1.58;;;9.30;99.90;;;;;;5444106;26;20013;-67
2024/04/09 03:03:45;;;;;;;8.15;1.52;;;9.30;99.90;;;;;;5457416;26;19994;-67
2024/04/09 03:06:13;;;;;;;11.85;1.77;;;9.30;99.90;;;;;;5443849;26;20079;-67
2024/04/09 03:08:40;;;;;;;10.10;1.58;;;9.30;99.90;;;;;;5439478;26;20080;-66
2024/04/09 03:11:14;;;;;;;6.57;1.33;;;9.30;99.90;;;;;;5444383;26;20003;-67
2024/04/09 03:13:42;;;;;;;8.65;1.40;;;9.30;99.90;;;;;;5448724;26;20506;-67
2024/04/09 03:16:16;;;;;;;6.75;1.30;;;9.30;99.90;;;;;;5460060;26;20004;-67
2024/04/09 03:18:43;;;;;;;7.20;0.82;;;9.30;99.90;;;;;;5449835;26;20027;-67
2024/04/09 03:21:11;;;;;;;7.97;1.27;;;9.20;99.90;;;;;;5442148;26;20076;-67
2024/04/09 03:23:38;;;;;;;7.55;1.08;;;9.20;99.90;;;;;;5434233;26;20449;-67
2024/04/09 03:26:06;;;;;;;6.80;1.05;;;9.20;99.90;;;;;;5437333;26;20019;-67
2024/04/09 03:28:34;;;;;;;5.45;1.27;;;9.10;99.90;;;;;;5436641;26;20002;-69
2024/04/09 03:31:02;;;;;;;7.85;1.05;;;9.20;99.90;;;;;;5449832;26;20006;-68
2024/04/09 03:33:29;;;;;;;7.75;2.03;;;9.20;99.90;;;;;;5427639;26;20007;-67
2024/04/09 03:35:58;;;;;;;6.63;1.02;;;9.20;99.90;;;;;;5433624;26;20042;-68
2024/04/09 03:38:25;;;;;;;4.50;1.35;;;9.20;99.90;;;;;;5447158;26;20014;-68
2024/04/09 03:40:59;;;;;;;9.10;1.20;;;9.20;99.90;;;;;;5441129;26;19998;-68
2024/04/09 03:43:26;;;;;;;16.40;2.83;;;9.30;99.90;;;;;;5442894;26;19994;-67
2024/04/09 03:46:13;;;;;;;12.32;1.80;;;9.30;99.90;;;;;;5445812;26;20368;-68
2024/04/09 03:48:42;;;;;;;9.10;2.22;;;9.30;99.90;;;;;;5440928;26;19995;-68
2024/04/09 03:51:10;;;;;;;9.23;1.88;;;9.40;99.90;;;;;;5413266;26;20004;-68
2024/04/09 03:53:37;;;;;;;13.73;2.35;;;9.40;99.90;;;;;;5425601;26;20031;-68
2024/04/09 03:56:05;;;;;;;10.30;1.83;;;9.40;99.90;;;;;;5443767;26;20660;-68
2024/04/09 03:58:35;;;;;;;9.23;1.83;;;9.40;99.90;;;;;;5443248;26;20358;-69
2024/04/09 04:01:02;;;;;;;15.80;2.80;;;9.50;99.90;;;;;;5442545;26;20374;-69
2024/04/09 04:03:36;;;;;;;12.93;2.97;;;9.50;99.90;;;;;;5400444;26;20002;-67
2024/04/09 04:06:03;;;;;;;17.00;2.20;;;9.50;99.90;;;;;;5439421;26;20107;-68
2024/04/09 04:08:32;;;;;;;11.65;1.95;;;9.40;99.90;;;;;;5438833;26;20439;-67
2024/04/09 04:11:00;;;;;;;19.10;3.70;;;9.50;99.90;;;;;;5440731;26;20018;-67
2024/04/09 04:13:29;;;;;;;15.73;2.45;;;9.50;99.90;;;;;;5443248;26;20002;-67
2024/04/09 04:16:05;;;;;;;5.80;1.45;;;9.50;99.90;;;;;;5448123;26;20056;-67
2024/04/09 04:18:36;;;;;;;20.38;3.03;;;9.50;99.90;;;;;;5440108;26;20070;-67
2024/04/09 04:21:05;;;;;;;13.20;2.17;;;9.50;99.90;;;;;;5437521;26;20003;-66
2024/04/09 04:23:37;;;;;;;21.52;2.45;;;9.50;99.90;;;;;;5458465;26;20010;-67
2024/04/09 04:26:06;;;;;;;15.32;2.97;;;9.50;99.90;;;;;;5417104;26;20012;-67
2024/04/09 04:28:37;;;;;;;14.32;2.83;;;9.60;99.90;;;;;;5449171;26;20497;-67
2024/04/09 04:31:09;;;;;;;10.23;2.35;;;9.60;99.90;;;;;;5434059;26;20073;-67
2024/04/09 04:33:36;;;;;;;19.50;2.40;;;9.50;99.90;;;;;;5459272;26;20010;-67
2024/04/09 04:36:05;;;;;;;15.90;4.13;;;9.50;99.90;;;;;;5439755;26;20343;-67
2024/04/09 04:38:32;;;;;;;16.08;2.50;;;9.50;99.90;;;;;;5442791;26;19998;-67
2024/04/09 04:40:59;;;;;;;10.52;2.33;;;9.50;99.90;;;;;;5427287;26;20019;-67
2024/04/09 04:43:26;;;;;;;12.57;2.35;;;9.60;99.90;;;;;;5430247;26;20009;-67
2024/04/09 04:45:55;;;;;;;16.48;2.05;;;9.60;99.90;;;;;;5446909;26;19999;-68
2024/04/09 04:48:22;;;;;;;10.10;2.10;;;9.60;99.90;;;;;;5457879;26;20457;-67
2024/04/09 04:50:49;;;;;;;15.13;2.75;;;9.60;99.90;;;;;;5417744;26;20376;-67
2024/04/09 04:53:16;;;;;;;12.57;2.60;;;9.60;99.90;;;;;;5441900;26;19995;-68
2024/04/09 04:55:42;;;;;;;14.18;2.28;;;9.70;99.90;;;;;;5440970;26;20003;-67
2024/04/09 04:58:09;;;;;;;14.75;3.40;;;9.70;99.90;;;;;;5465315;26;20048;-67
2024/04/09 05:00:36;;;;;;;10.23;2.25;;;9.70;99.90;;;;;;5429717;26;20025;-68
2024/04/09 05:03:04;;;;;;;19.20;2.70;;;9.80;99.90;;;;;;5448618;26;20014;-68
2024/04/09 05:05:32;;;;;;;13.32;2.35;;;9.80;99.90;;;;;;5453655;26;21446;-68
2024/04/09 05:07:59;;;;;;;11.07;1.85;;;9.80;99.90;;;;;;5421797;26;20003;-69
2024/04/09 05:10:26;;;;;;;13.05;2.55;;;9.80;99.90;;;;;;5423118;26;20021;-67
2024/04/09 05:12:53;;;;;;;10.60;1.60;;;9.80;99.90;;;;;;5425676;26;20071;-69
2024/04/09 05:15:21;;;;;;;16.98;3.17;;;9.70;99.90;;;;;;5427449;26;20003;-67
2024/04/09 05:17:48;;;;;;;10.18;2.25;;;9.80;99.90;;;;;;5431097;26;21218;-67
2024/04/09 05:20:16;;;;;;;9.80;2.97;;;9.80;99.90;;;;;;5451827;26;20054;-69
2024/04/09 05:22:47;;;;;;;18.90;3.30;;;9.80;99.90;;;;;;5441180;26;20415;-66
2024/04/09 05:25:15;;;;;;;15.90;2.47;;;9.80;99.90;;;;;;5448321;26;20019;-69
2024/04/09 05:27:42;;;;;;;12.20;2.40;;;9.80;99.90;;;;;;5411807;26;20014;-69
2024/04/09 05:30:10;;;;;;;11.38;2.15;;;9.80;99.90;;;;;;5396709;26;20022;-66
2024/04/09 05:32:39;;;;;;;13.27;2.25;;;9.80;99.90;;;;;;5405217;26;20011;-67
2024/04/09 05:35:06;;;;;;;20.65;4.38;;;9.60;99.90;;;;;;5418365;26;20022;-68
2024/04/09 05:37:33;;;;;;;15.65;1.95;;;9.80;99.90;;;;;;5437351;26;20558;-67
2024/04/09 05:40:00;;;;;;;15.55;3.53;;;9.70;99.90;;;;;;5444972;26;20017;-68
2024/04/09 05:42:27;;;;;;;8.32;1.50;;;9.70;99.90;;;;;;5457272;26;20572;-68
2024/04/09 05:44:54;;;;;;;12.73;2.33;;;9.70;99.90;;;;;;5432219;26;20462;-68
2024/04/09 05:47:24;;;;;;;20.35;1.98;;;9.70;99.90;;;;;;5457028;26;20011;-68
2024/04/09 05:49:51;;;;;;;11.75;1.83;;;9.70;99.90;;;;;;5416783;26;20019;-68
2024/04/09 05:52:18;;;;;;;8.55;1.40;;;9.70;99.90;;;;;;5434214;26;20025;-69
2024/04/09 05:54:45;;;;;;;8.60;1.65;;;9.70;99.90;;;;;;5432488;26;19999;-67
2024/04/09 05:57:12;;;;;;;11.45;1.45;;;9.80;99.90;;;;;;5423303;26;20000;-68
2024/04/09 05:59:39;;;;;;;7.72;1.80;;;9.70;99.90;;;;;;5441372;26;20026;-68
2024/04/09 06:02:06;;;;;;;8.75;1.45;;;9.70;99.90;;;;;;5434109;26;20003;-68
2024/04/09 06:04:33;;;;;;;5.88;1.73;;;9.60;99.90;;;;;;5440389;26;20049;-68
2024/04/09 06:07:01;;;;;;;11.00;1.63;;;9.50;99.90;;;;;;5448062;26;20713;-67
2024/04/09 06:09:28;;;;;;;10.45;1.77;;;9.50;99.90;;;;;;5436306;26;20018;-68
2024/04/09 06:11:55;;;;;;;13.15;2.17;;;9.40;99.90;;;;;;5436763;26;19998;-68
2024/04/09 06:14:22;;;;;;;3.67;1.48;;;9.40;99.90;;;;;;5442792;26;20010;-68
2024/04/09 06:16:51;;;;;;;7.75;1.80;;;9.10;99.90;;;;;;5435630;26;21047;-67
2024/04/09 06:19:20;;;;;;;9.88;1.73;;;9.10;99.90;;;;;;5439792;26;20009;-69
2024/04/09 06:21:48;;;;;;;15.02;1.90;;;9.00;99.90;;;;;;5442487;26;20083;-67
2024/04/09 06:24:14;;;;;;;10.15;1.75;;;9.00;99.90;;;;;;5433844;26;20409;-67
2024/04/09 06:26:41;;;;;;;9.65;1.58;;;9.00;99.90;;;;;;5438121;26;20014;-67
2024/04/09 06:29:09;;;;;;;16.35;2.63;;;8.90;99.90;;;;;;5456555;26;20003;-67
2024/04/09 06:31:37;;;;;;;5.32;1.23;;;8.90;99.90;;;;;;5429355;26;20003;-67
2024/04/09 06:34:04;;;;;;;9.82;1.75;;;8.80;99.90;;;;;;5434874;26;20477;-67
2024/04/09 06:36:32;;;;;;;7.18;0.98;;;8.80;99.90;;;;;;5440974;26;20015;-67
2024/04/09 06:38:59;;;;;;;11.38;1.90;;;8.70;99.90;;;;;;5467449;26;20564;-67
2024/04/09 06:41:26;;;;;;;5.05;1.13;;;8.70;99.90;;;;;;5454643;26;20030;-68
2024/04/09 06:43:53;;;;;;;10.38;1.30;;;8.70;99.90;;;;;;5472838;26;20010;-67
2024/04/09 06:46:19;;;;;;;5.22;1.13;;;8.70;99.90;;;;;;5077341;26;9999835;-67
2024/04/09 06:48:47;;;;;;;6.80;1.27;;;8.70;99.90;;;;;;5447316;26;20043;-67
2024/04/09 06:51:15;;;;;;;11.93;1.50;;;8.70;99.90;;;;;;5433761;26;19999;-68
2024/04/09 06:53:42;;;;;;;3.38;1.00;;;8.70;99.90;;;;;;5458892;26;20353;-68
2024/04/09 06:56:09;;;;;;;1.80;0.68;;;8.60;99.90;;;;;;5441331;26;20006;-69
2024/04/09 06:58:37;;;;;;;1.55;0.60;;;8.60;99.90;;;;;;5454550;26;20002;-68
2024/04/09 07:01:04;;;;;;;2.30;0.50;;;8.60;99.90;;;;;;5439692;26;19999;-69
2024/04/09 07:03:31;;;;;;;2.88;0.50;;;8.60;99.90;;;;;;5447048;26;20382;-69
2024/04/09 07:05:59;;;;;;;2.00;0.68;;;8.60;99.90;;;;;;5433321;26;20007;-69
2024/04/09 07:08:26;;;;;;;1.10;0.70;;;8.70;99.90;;;;;;5430322;26;20022;-68
2024/04/09 07:10:55;;;;;;;3.42;0.47;;;8.70;99.90;;;;;;5433790;26;20561;-69
2024/04/09 07:13:23;;;;;;;3.13;0.60;;;8.60;99.90;;;;;;5438758;26;20015;-68
2024/04/09 07:15:55;;;;;;;5.70;0.98;;;8.70;99.90;;;;;;5431717;26;20022;-67
2024/04/09 07:18:22;;;;;;;1.38;0.70;;;8.70;99.90;;;;;;5418029;26;20562;-64
2024/04/09 07:20:50;;;;;;;1.55;0.45;;;8.70;99.90;;;;;;5416105;26;19999;-68
2024/04/09 07:23:17;;;;;;;0.98;0.40;;;8.70;99.90;;;;;;5406324;26;20007;-66
2024/04/09 07:25:44;;;;;;;0.80;0.30;;;8.70;99.90;;;;;;5420812;26;20532;-68
2024/04/09 07:28:12;;;;;;;0.73;0.40;;;8.80;99.90;;;;;;5391275;26;20072;-67
2024/04/09 07:30:39;;;;;;;0.75;0.35;;;8.80;99.90;;;;;;5418016;26;20435;-68
2024/04/09 07:33:06;;;;;;;1.33;0.45;;;8.70;99.90;;;;;;5436224;26;20253;-67
2024/04/09 07:35:33;;;;;;;1.00;0.35;;;8.70;99.90;;;;;;5431946;26;20010;-67
2024/04/09 07:38:00;;;;;;;4.38;0.52;;;8.70;99.90;;;;;;5439470;26;20017;-69
2024/04/09 07:40:27;;;;;;;1.70;0.57;;;8.60;99.90;;;;;;5434528;26;20003;-69
2024/04/09 07:42:55;;;;;;;1.30;0.50;;;8.60;99.90;;;;;;5450912;26;19998;-68
2024/04/09 07:45:23;;;;;;;2.47;0.60;;;8.70;99.90;;;;;;5406037;26;19999;-67
2024/04/09 07:47:53;;;;;;;2.80;0.40;;;8.50;99.90;;;;;;5433181;26;20018;-68
2024/04/09 07:50:20;;;;;;;0.98;0.50;;;8.60;99.90;;;;;;5427537;26;20103;-68
2024/04/09 07:52:47;;;;;;;2.15;0.50;;;8.60;99.90;;;;;;5430974;26;20079;-68
2024/04/09 07:55:15;;;;;;;1.05;0.52;;;8.60;99.90;;;;;;5418862;26;20017;-68
2024/04/09 07:57:45;;;;;;;2.15;0.70;;;8.50;99.90;;;;;;5397348;26;20007;-67
2024/04/09 08:00:16;;;;;;;3.92;0.50;;;8.60;99.90;;;;;;5428763;26;20018;-68
2024/04/09 08:02:44;;;;;;;2.70;0.85;;;8.60;99.90;;;;;;5428633;26;20345;-64
2024/04/09 08:05:12;;;;;;;4.95;0.65;;;8.60;99.90;;;;;;5424978;26;20003;-69
2024/04/09 08:07:39;;;;;;;1.80;0.68;;;8.50;99.90;;;;;;5441388;26;19998;-69
2024/04/09 08:10:13;;;;;;;3.88;0.82;;;8.50;99.90;;;;;;5429074;26;20026;-68
2024/04/09 08:12:45;;;;;;;3.45;0.70;;;8.50;99.90;;;;;;5410154;26;20462;-68
2024/04/09 08:15:12;;;;;;;0.50;0.40;;;8.50;99.90;;;;;;5404464;26;20506;-68
2024/04/09 08:17:39;;;;;;;0.75;0.57;;;8.40;99.90;;;;;;5435196;26;20014;-65
2024/04/09 08:20:10;;;;;;;1.08;0.50;;;8.40;99.90;;;;;;5431765;26;20011;-68
2024/04/09 08:22:37;;;;;;;9.80;0.77;;;8.50;99.90;;;;;;5434249;26;20010;-67
2024/04/09 08:25:10;;;;;;;3.03;0.68;;;8.60;99.90;;;;;;5437005;26;19999;-68
2024/04/09 08:27:38;;;;;;;2.45;0.77;;;8.50;99.90;;;;;;5440840;26;20007;-67
2024/04/09 08:30:17;;;;;;;1.35;0.57;;;8.60;99.90;;;;;;5393999;26;20472;-67
2024/04/09 08:32:46;;;;;;;4.20;0.40;;;8.60;99.90;;;;;;5419229;26;20056;-68
2024/04/09 08:35:13;;;;;;;0.90;0.50;;;8.70;99.90;;;;;;5432568;26;20004;-67
2024/04/09 08:37:42;;;;;;;0.30;0.30;;;8.70;99.90;;;;;;5416643;26;20068;-67
2024/04/09 08:40:10;;;;;;;1.98;0.60;;;8.60;99.90;;;;;;5425086;26;20025;-67
2024/04/09 08:42:38;;;;;;;1.90;0.57;;;8.50;99.90;;;;;;5437697;26;19999;-67
2024/04/09 08:45:14;;;;;;;1.58;0.57;;;8.60;99.90;;;;;;5408932;26;20017;-67
2024/04/09 08:47:42;;;;;;;1.40;0.40;;;8.60;99.90;;;;;;5438896;26;20014;-68
2024/04/09 08:50:10;;;;;;;1.48;0.47;;;8.60;99.90;;;;;;5464977;26;20790;-68
2024/04/09 08:52:38;;;;;;;3.75;0.50;;;8.70;99.90;;;;;;5429719;26;19999;-68
2024/04/09 08:55:08;;;;;;;1.50;0.22;;;8.70;99.90;;;;;;5450009;26;20434;-66
2024/04/09 08:57:35;;;;;;;5.07;1.20;;;8.70;99.90;;;;;;5458180;26;19995;-68
2024/04/09 09:00:04;;;;;;;1.13;0.40;;;8.70;99.90;;;;;;5459044;26;20673;-66
2024/04/09 09:02:32;;;;;;;0.77;0.30;;;8.80;99.90;;;;;;5437672;26;20497;-66
2024/04/09 09:05:00;;;;;;;2.83;0.43;;;8.90;99.90;;;;;;5448138;26;20014;-66
2024/04/09 09:07:28;;;;;;;5.75;1.40;;;8.90;99.90;;;;;;5429588;26;20003;-66
2024/04/09 09:10:03;;;;;;;2.25;0.63;;;8.90;99.90;;;;;;5439605;26;20055;-66
2024/04/09 09:12:30;;;;;;;0.40;0.40;;;8.90;99.90;;;;;;5439372;26;19999;-65
2024/04/09 09:15:04;;;;;;;2.05;0.60;;;8.90;99.90;;;;;;5436147;26;20007;-65
2024/04/09 09:17:33;;;;;;;6.13;0.30;;;9.00;99.90;;;;;;5438932;26;20013;-65
2024/04/09 09:20:01;;;;;;;3.15;0.40;;;9.00;99.90;;;;;;5434594;26;20475;-65
2024/04/09 09:22:35;;;;;;;2.17;0.30;;;8.90;99.90;;;;;;5443723;26;20014;-66
2024/04/09 09:25:05;;;;;;;0.82;0.38;;;8.90;99.90;;;;;;5452171;26;20015;-66
2024/04/09 09:27:35;;;;;;;0.17;0.17;;;8.90;99.90;;;;;;5437415;26;20079;-66
2024/04/09 09:30:02;;;;;;;0.35;0.32;;;8.90;99.90;;;;;;5424330;26;20774;-66
2024/04/09 09:32:29;;;;;;;0.10;0.10;;;8.80;99.90;;;;;;5436948;26;20003;-66
2024/04/09 09:34:57;;;;;;;1.25;0.40;;;8.80;99.90;;;;;;5451583;26;20014;-65
2024/04/09 09:37:24;;;;;;;1.38;0.30;;;8.80;99.90;;;;;;5431386;26;19995;-66
2024/04/09 09:39:51;;;;;;;0.43;0.25;;;8.70;99.90;;;;;;5436973;26;20027;-65
2024/04/09 09:42:18;;;;;;;4.63;0.32;;;8.80;99.90;;;;;;5436700;26;20071;-65
2024/04/09 09:44:45;;;;;;;0.65;0.17;;;8.70;99.90;;;;;;5396028;26;20014;-66
2024/04/09 09:47:12;;;;;;;1.10;0.40;;;8.90;99.90;;;;;;5440480;26;20027;-66
2024/04/09 09:49:39;;;;;;;2.63;0.32;;;8.80;99.90;;;;;;5436818;26;19998;-66
2024/04/09 09:52:06;;;;;;;0.20;0.20;;;8.80;99.90;;;;;;5448040;26;20521;-66
2024/04/09 09:54:33;;;;;;;19.48;1.77;;;8.80;99.90;;;;;;5434326;26;20595;-67
2024/04/09 09:57:05;;;;;;;19.33;1.88;;;8.70;99.90;;;;;;5423234;26;19996;-67
2024/04/09 09:59:52;;;;;;;0.20;0.20;;;8.80;99.90;;;;;;5430378;26;20003;-69
2024/04/09 10:02:19;;;;;;;0.50;0.35;;;8.80;99.90;;;;;;5394750;26;20006;-68
2024/04/09 10:04:46;;;;;;;2.00;0.30;;;8.60;99.90;;;;;;5395986;26;20011;-68
2024/04/09 10:07:16;;;;;;;1.50;0.43;;;8.50;99.90;;;;;;5395704;26;19999;-69
2024/04/09 10:09:53;;;;;;;0.10;0.10;;;8.50;99.90;;;;;;5419423;26;20346;-69
2024/04/09 10:12:23;;;;;;;1.90;0.38;;;8.50;99.90;;;;;;5423578;26;20007;-68
2024/04/09 10:15:05;;;;;;;0.47;0.40;;;8.60;99.90;;;;;;5430210;26;19999;-69
2024/04/09 10:18:04;;;;;;;0.40;0.20;;;8.50;99.90;;;;;;5420932;26;19998;-68
2024/04/09 10:20:35;;;;;;;0.20;0.13;;;8.50;99.90;;;;;;5375033;26;20423;-69
2024/04/09 10:23:03;;;;;;;0.82;0.65;;;8.50;99.90;;;;;;5445399;26;20075;-68
2024/04/09 10:25:41;;;;;;;0.30;0.30;;;8.70;99.90;;;;;;5393219;26;20404;-68
2024/04/09 10:28:10;;;;;;;2.75;0.50;;;8.80;99.90;;;;;;5435513;26;19999;-69
2024/04/09 10:30:37;;;;;;;1.70;0.45;;;8.90;99.90;;;;;;5420360;26;20018;-69
2024/04/09 10:33:05;;;;;;;3.97;0.55;;;9.00;99.90;;;;;;5423331;26;20022;-70
2024/04/09 10:35:33;;;;;;;0.70;0.35;;;9.10;99.90;;;;;;5437682;26;20518;-69
2024/04/09 10:38:04;;;;;;;0.88;0.40;;;9.20;99.90;;;;;;5432040;26;20190;-70
2024/04/09 10:40:35;;;;;;;2.83;0.30;;;9.20;99.90;;;;;;5419358;26;20043;-68
2024/04/09 10:43:05;;;;;;;2.08;0.30;;;9.30;99.90;;;;;;5427443;26;20035;-68
2024/04/09 10:45:32;;;;;;;0.45;0.20;;;9.30;99.90;;;;;;5430271;26;20116;-68
2024/04/09 10:48:07;;;;;;;1.25;0.30;;;9.30;99.90;;;;;;5435395;26;20021;-68
2024/04/09 10:50:34;;;;;;;1.13;0.43;;;9.40;99.90;;;;;;5408273;26;20074;-68
2024/04/09 10:53:02;;;;;;;1.13;0.30;;;9.50;99.90;;;;;;5426327;26;20423;-68
2024/04/09 10:55:33;;;;;;;8.15;1.02;;;9.50;99.90;;;;;;5413074;26;20574;-69
2024/04/09 10:58:00;;;;;;;0.45;0.35;;;9.50;99.90;;;;;;5390266;26;20003;-69
2024/04/09 11:00:27;;;;;;;1.27;0.68;;;9.40;99.90;;;;;;5436993;26;19999;-68
2024/04/09 11:02:54;;;;;;;1.13;0.47;;;9.30;99.90;;;;;;5421326;26;20358;-68
2024/04/09 11:05:20;;;;;;;0.35;0.35;;;9.30;99.90;;;;;;5434998;26;20007;-68
2024/04/09 11:07:48;;;;;;;1.45;0.50;;;9.30;99.90;;;;;;5399554;26;20010;-68
2024/04/09 11:10:16;;;;;;;19.15;1.23;;;9.40;99.90;;;;;;5436090;26;20003;-68
2024/04/09 11:12:53;;;;;;;3.47;0.50;;;9.40;99.90;;;;;;5408097;26;20022;-69
2024/04/09 11:15:20;;;;;;;1.60;0.52;;;9.50;99.90;;;;;;5432508;26;19999;-69
2024/04/09 11:17:47;;;;;;;0.25;0.20;;;9.50;99.90;;;;;;5444582;26;20014;-69
2024/04/09 11:20:15;;;;;;;1.00;0.57;;;9.50;99.90;;;;;;5451240;26;20013;-69
2024/04/09 11:22:42;;;;;;;0.95;0.57;;;9.50;99.90;;;;;;5450438;26;20465;-68
2024/04/09 11:25:17;;;;;;;0.98;0.57;;;9.50;99.90;;;;;;5438121;26;20669;-68
2024/04/09 11:27:49;;;;;;;3.08;0.60;;;9.60;99.90;;;;;;5432827;26;20038;-69
2024/04/09 11:30:28;;;;;;;1.10;0.57;;;9.70;99.90;;;;;;5434257;26;20007;-69
2024/04/09 11:32:56;;;;;;;0.65;0.22;;;9.70;99.90;;;;;;5430978;26;20000;-69
2024/04/09 11:35:24;;;;;;;3.00;0.47;;;9.80;99.90;;;;;;5433199;26;20011;-70
2024/04/09 11:37:52;;;;;;;0.40;0.32;;;9.80;99.90;;;;;;5421212;26;20074;-68
2024/04/09 11:40:20;;;;;;;1.30;0.88;;;9.90;99.90;;;;;;5430824;26;20081;-67
2024/04/09 11:42:55;;;;;;;1.13;0.28;;;9.70;99.90;;;;;;5409024;26;20006;-68
2024/04/09 11:45:23;;;;;;;0.65;0.52;;;9.60;99.90;;;;;;5444752;26;19995;-67
2024/04/09 11:47:50;;;;;;;0.85;0.50;;;9.50;99.90;;;;;;5435045;26;20010;-69
2024/04/09 11:50:17;;;;;;;0.55;0.45;;;9.50;99.90;;;;;;5438209;26;19999;-70
2024/04/09 11:52:45;;;;;;;0.40;0.40;;;9.50;99.90;;;;;;5447718;26;20385;-71
2024/04/09 11:55:12;;;;;;;2.00;0.70;;;9.50;99.90;;;;;;5417558;26;20027;-71
2024/04/09 11:57:45;;;;;;;2.90;0.60;;;9.50;99.90;;;;;;5433542;26;20360;-70
2024/04/09 12:00:13;;;;;;;1.25;0.73;;;9.60;99.90;;;;;;5433227;26;20006;-71
2024/04/09 12:02:41;;;;;;;5.53;0.57;;;9.60;99.90;;;;;;5363721;26;19999;-69
2024/04/09 12:05:14;;;;;;;5.63;0.52;;;9.70;99.90;;;;;;5447481;26;20083;-69
2024/04/09 12:07:42;;;;;;;0.57;0.40;;;9.70;99.90;;;;;;5444133;26;19999;-70
2024/04/09 12:10:09;;;;;;;1.48;0.73;;;9.60;99.90;;;;;;5048755;25;10000577;-70
2024/04/09 12:12:36;;;;;;;1.50;0.50;;;9.60;99.90;;;;;;5445109;26;20540;-70
2024/04/09 12:15:04;;;;;;;4.88;0.82;;;9.60;99.90;;;;;;5436833;26;20010;-70
2024/04/09 12:17:31;;;;;;;1.05;0.73;;;9.60;99.90;;;;;;5452581;26;20350;-70
2024/04/09 12:19:58;;;;;;;2.38;0.98;;;9.60;99.90;;;;;;5437038;26;20013;-67
2024/04/09 12:22:26;;;;;;;2.55;0.50;;;9.60;99.90;;;;;;5441809;26;20483;-69
2024/04/09 12:24:56;;;;;;;1.67;1.13;;;9.60;99.90;;;;;;5440349;26;20504;-69
2024/04/09 12:27:23;;;;;;;1.85;0.40;;;9.70;99.90;;;;;;5437806;26;20410;-69
2024/04/09 12:29:50;;;;;;;2.50;0.55;;;9.80;99.90;;;;;;5416065;26;20061;-70
2024/04/09 12:32:17;;;;;;;3.10;0.90;;;10.00;99.90;;;;;;5416577;26;20076;-71
2024/04/09 12:34:44;;;;;;;1.73;0.40;;;10.10;99.90;;;;;;5433180;26;20015;-71
2024/04/09 12:37:11;;;;;;;1.13;0.60;;;10.20;99.90;;;;;;5414344;26;20006;-71
2024/04/09 12:39:38;;;;;;;2.88;0.70;;;10.40;99.90;;;;;;5418150;26;20000;-70
2024/04/09 12:42:07;;;;;;;0.90;0.68;;;10.40;99.90;;;;;;5411745;26;20032;-70
2024/04/09 12:44:35;;;;;;;1.95;0.70;;;10.50;99.90;;;;;;5415177;26;20007;-70
2024/04/09 12:47:03;;;;;;;2.47;0.70;;;10.50;99.90;;;;;;5409794;26;20079;-71
2024/04/09 12:49:33;;;;;;;8.43;1.38;;;10.60;99.90;;;;;;5405278;26;21279;-70
2024/04/09 12:52:13;;;;;;;3.83;1.17;;;10.60;99.90;;;;;;5412046;26;20014;-71
2024/04/09 12:54:41;;;;;;;3.90;1.00;;;10.60;99.90;;;;;;5420649;26;20003;-70
2024/04/09 12:57:08;;;;;;;2.70;1.02;;;10.70;99.90;;;;;;5428040;26;20015;-71